sensor_id;sensor_type;location;lat;lon;timestamp;temperature;humidity
22430;DHT22;11382;48.086;11.632;2023-01-05T00:01:32;10.30;99.90
22430;DHT22;11382;48.086;11.632;2023-01-05T00:04:00;10.30;99.90
22430;DHT22;11382;48.086;11.632;2023-01-05T00:06:28;10.30;99.90
22430;DHT22;11382;48.086;11.632;2023-01-05T00:08:57;10.30;99.90
22430;DHT22;11382;48.086;11.632;2023-01-05T00:11:26;10.30;99.90
22430;DHT22;11382;48.086;11.632;2023-01-05T00:14:13;10.30;99.90
22430;DHT22;11382;48.086;11.632;2023-01-05T00:16:59;10.30;99.90
22430;DHT22;11382;48.086;11.632;2023-01-05T00:19:45;10.30;99.90
22430;DHT22;11382;48.086;11.632;2023-01-05T00:22:32;10.40;99.90
22430;DHT22;11382;48.086;11.632;2023-01-05T00:25:05;10.30;99.90
22430;DHT22;11382;48.086;11.632;2023-01-05T00:27:41;10.40;99.90
22430;DHT22;11382;48.086;11.632;2023-01-05T00:30:10;10.30;99.90
22430;DHT22;11382;48.086;11.632;2023-01-05T00:32:40;10.30;99.90
22430;DHT22;11382;48.086;11.632;2023-01-05T00:35:09;10.30;99.90
22430;DHT22;11382;48.086;11.632;2023-01-05T00:37:37;10.30;99.90
22430;DHT22;11382;48.086;11.632;2023-01-05T00:40:07;10.30;99.90
22430;DHT22;11382;48.086;11.632;2023-01-05T00:42:36;10.40;99.90
22430;DHT22;11382;48.086;11.632;2023-01-05T00:45:07;10.40;99.90
22430;DHT22;11382;48.086;11.632;2023-01-05T00:47:36;10.40;99.90
22430;DHT22;11382;48.086;11.632;2023-01-05T00:50:05;10.50;99.90
22430;DHT22;11382;48.086;11.632;2023-01-05T00:52:34;10.50;99.90
22430;DHT22;11382;48.086;11.632;2023-01-05T00:55:02;10.50;99.90
22430;DHT22;11382;48.086;11.632;2023-01-05T00:57:30;10.50;99.90
22430;DHT22;11382;48.086;11.632;2023-01-05T00:59:58;10.50;99.90
22430;DHT22;11382;48.086;11.632;2023-01-05T01:02:30;10.50;99.90
22430;DHT22;11382;48.086;11.632;2023-01-05T01:04:59;10.50;99.90
22430;DHT22;11382;48.086;11.632;2023-01-05T01:07:29;10.60;99.90
22430;DHT22;11382;48.086;11.632;2023-01-05T01:09:57;10.60;99.90
22430;DHT22;11382;48.086;11.632;2023-01-05T01:12:25;10.50;99.90
22430;DHT22;11382;48.086;11.632;2023-01-05T01:14:53;10.60;99.90
22430;DHT22;11382;48.086;11.632;2023-01-05T01:17:21;10.60;99.90
22430;DHT22;11382;48.086;11.632;2023-01-05T01:19:50;10.50;99.90
22430;DHT22;11382;48.086;11.632;2023-01-05T01:22:18;10.60;99.90
22430;DHT22;11382;48.086;11.632;2023-01-05T01:24:46;10.60;99.90
22430;DHT22;11382;48.086;11.632;2023-01-05T01:27:14;10.60;99.90
22430;DHT22;11382;48.086;11.632;2023-01-05T01:29:42;10.50;99.90
22430;DHT22;11382;48.086;11.632;2023-01-05T01:32:10;10.50;99.90
22430;DHT22;11382;48.086;11.632;2023-01-05T01:34:37;10.50;99.90
22430;DHT22;11382;48.086;11.632;2023-01-05T01:37:07;10.50;99.90
22430;DHT22;11382;48.086;11.632;2023-01-05T01:39:40;10.50;99.90
22430;DHT22;11382;48.086;11.632;2023-01-05T01:42:13;10.40;99.90
22430;DHT22;11382;48.086;11.632;2023-01-05T01:44:51;10.40;99.90
22430;DHT22;11382;48.086;11.632;2023-01-05T01:47:33;10.40;99.90
22430;DHT22;11382;48.086;11.632;2023-01-05T01:50:04;10.40;99.90
22430;DHT22;11382;48.086;11.632;2023-01-05T01:52:34;10.50;99.90
22430;DHT22;11382;48.086;11.632;2023-01-05T01:55:05;10.40;99.90
22430;DHT22;11382;48.086;11.632;2023-01-05T01:57:34;10.50;99.90
22430;DHT22;11382;48.086;11.632;2023-01-05T02:00:05;10.50;99.90
22430;DHT22;11382;48.086;11.632;2023-01-05T02:02:44;10.50;99.90
22430;DHT22;11382;48.086;11.632;2023-01-05T02:05:14;10.50;99.90
22430;DHT22;11382;48.086;11.632;2023-01-05T02:07:46;10.40;99.90
22430;DHT22;11382;48.086;11.632;2023-01-05T02:10:17;10.50;99.90
22430;DHT22;11382;48.086;11.632;2023-01-05T02:12:55;10.50;99.90
22430;DHT22;11382;48.086;11.632;2023-01-05T02:15:34;10.60;99.90
22430;DHT22;11382;48.086;11.632;2023-01-05T02:18:19;10.60;99.90
22430;DHT22;11382;48.086;11.632;2023-01-05T02:21:03;10.50;99.90
22430;DHT22;11382;48.086;11.632;2023-01-05T02:32:54;10.50;99.90
22430;DHT22;11382;48.086;11.632;2023-01-05T02:35:31;10.60;99.90
22430;DHT22;11382;48.086;11.632;2023-01-05T02:38:08;10.60;99.90
22430;DHT22;11382;48.086;11.632;2023-01-05T02:40:41;10.70;99.90
22430;DHT22;11382;48.086;11.632;2023-01-05T02:43:11;10.70;99.90
22430;DHT22;11382;48.086;11.632;2023-01-05T02:45:40;10.70;99.90
22430;DHT22;11382;48.086;11.632;2023-01-05T02:48:10;10.70;99.90
22430;DHT22;11382;48.086;11.632;2023-01-05T02:50:41;10.70;99.90
22430;DHT22;11382;48.086;11.632;2023-01-05T02:53:13;10.70;99.90
22430;DHT22;11382;48.086;11.632;2023-01-05T02:55:47;10.70;99.90
22430;DHT22;11382;48.086;11.632;2023-01-05T02:58:22;10.50;99.90
22430;DHT22;11382;48.086;11.632;2023-01-05T03:00:53;10.40;99.90
22430;DHT22;11382;48.086;11.632;2023-01-05T03:03:29;10.40;99.90
22430;DHT22;11382;48.086;11.632;2023-01-05T03:06:04;10.40;99.90
22430;DHT22;11382;48.086;11.632;2023-01-05T03:08:38;10.40;99.90
22430;DHT22;11382;48.086;11.632;2023-01-05T03:11:09;10.30;99.90
22430;DHT22;11382;48.086;11.632;2023-01-05T03:14:00;10.30;99.90
22430;DHT22;11382;48.086;11.632;2023-01-05T03:16:35;10.20;99.90
22430;DHT22;11382;48.086;11.632;2023-01-05T03:19:10;10.30;99.90
22430;DHT22;11382;48.086;11.632;2023-01-05T03:21:57;10.20;99.90
22430;DHT22;11382;48.086;11.632;2023-01-05T03:24:44;10.20;99.90
22430;DHT22;11382;48.086;11.632;2023-01-05T03:27:35;10.10;99.90
22430;DHT22;11382;48.086;11.632;2023-01-05T03:30:26;10.00;99.90
22430;DHT22;11382;48.086;11.632;2023-01-05T03:33:17;10.00;99.90
22430;DHT22;11382;48.086;11.632;2023-01-05T03:36:07;10.00;99.90
22430;DHT22;11382;48.086;11.632;2023-01-05T03:38:42;9.90;99.90
22430;DHT22;11382;48.086;11.632;2023-01-05T03:41:14;10.00;99.90
22430;DHT22;11382;48.086;11.632;2023-01-05T03:43:45;10.10;99.90
22430;DHT22;11382;48.086;11.632;2023-01-05T03:46:17;10.10;99.90
22430;DHT22;11382;48.086;11.632;2023-01-05T03:48:47;10.20;99.90
22430;DHT22;11382;48.086;11.632;2023-01-05T03:51:19;10.20;99.90
22430;DHT22;11382;48.086;11.632;2023-01-05T03:53:47;10.20;99.90
22430;DHT22;11382;48.086;11.632;2023-01-05T03:56:16;10.20;99.90
22430;DHT22;11382;48.086;11.632;2023-01-05T03:58:44;10.20;99.90
22430;DHT22;11382;48.086;11.632;2023-01-05T04:01:13;10.30;99.90
22430;DHT22;11382;48.086;11.632;2023-01-05T04:03:41;10.30;99.90
22430;DHT22;11382;48.086;11.632;2023-01-05T04:06:10;10.30;99.90
22430;DHT22;11382;48.086;11.632;2023-01-05T04:08:39;10.20;99.90
22430;DHT22;11382;48.086;11.632;2023-01-05T04:11:14;10.20;99.90
22430;DHT22;11382;48.086;11.632;2023-01-05T04:13:49;10.30;99.90
22430;DHT22;11382;48.086;11.632;2023-01-05T04:16:19;10.30;99.90
22430;DHT22;11382;48.086;11.632;2023-01-05T04:18:49;10.30;99.90
22430;DHT22;11382;48.086;11.632;2023-01-05T04:21:19;10.40;99.90
22430;DHT22;11382;48.086;11.632;2023-01-05T04:23:50;10.40;99.90
22430;DHT22;11382;48.086;11.632;2023-01-05T04:26:19;10.50;99.90
22430;DHT22;11382;48.086;11.632;2023-01-05T04:28:49;10.50;99.90
22430;DHT22;11382;48.086;11.632;2023-01-05T04:31:19;10.50;99.90
22430;DHT22;11382;48.086;11.632;2023-01-05T04:33:49;10.60;99.90
22430;DHT22;11382;48.086;11.632;2023-01-05T04:36:20;10.60;99.90
22430;DHT22;11382;48.086;11.632;2023-01-05T04:38:50;10.60;99.90
22430;DHT22;11382;48.086;11.632;2023-01-05T04:41:19;10.70;99.90
22430;DHT22;11382;48.086;11.632;2023-01-05T04:43:50;10.70;99.90
22430;DHT22;11382;48.086;11.632;2023-01-05T04:46:19;10.70;99.90
22430;DHT22;11382;48.086;11.632;2023-01-05T04:48:49;10.70;99.90
22430;DHT22;11382;48.086;11.632;2023-01-05T04:51:19;10.70;99.90
22430;DHT22;11382;48.086;11.632;2023-01-05T04:53:47;10.70;99.90
22430;DHT22;11382;48.086;11.632;2023-01-05T04:56:18;10.70;99.90
22430;DHT22;11382;48.086;11.632;2023-01-05T04:58:48;10.80;99.90
22430;DHT22;11382;48.086;11.632;2023-01-05T05:01:17;10.80;99.90
22430;DHT22;11382;48.086;11.632;2023-01-05T05:03:50;10.70;99.90
22430;DHT22;11382;48.086;11.632;2023-01-05T05:06:19;10.80;99.90
22430;DHT22;11382;48.086;11.632;2023-01-05T05:08:48;10.80;99.90
22430;DHT22;11382;48.086;11.632;2023-01-05T05:11:18;10.70;99.90
22430;DHT22;11382;48.086;11.632;2023-01-05T05:13:48;10.70;99.90
22430;DHT22;11382;48.086;11.632;2023-01-05T05:16:16;10.70;99.90
22430;DHT22;11382;48.086;11.632;2023-01-05T05:18:46;10.70;99.90
22430;DHT22;11382;48.086;11.632;2023-01-05T05:21:20;10.70;99.90
22430;DHT22;11382;48.086;11.632;2023-01-05T05:23:47;10.70;99.90
22430;DHT22;11382;48.086;11.632;2023-01-05T05:26:16;10.70;99.90
22430;DHT22;11382;48.086;11.632;2023-01-05T05:28:47;10.70;99.90
22430;DHT22;11382;48.086;11.632;2023-01-05T05:31:15;10.70;99.90
22430;DHT22;11382;48.086;11.632;2023-01-05T05:33:43;10.70;99.90
22430;DHT22;11382;48.086;11.632;2023-01-05T05:36:11;10.70;99.90
22430;DHT22;11382;48.086;11.632;2023-01-05T05:38:39;10.70;99.90
22430;DHT22;11382;48.086;11.632;2023-01-05T05:41:07;10.70;99.90
22430;DHT22;11382;48.086;11.632;2023-01-05T05:43:35;10.70;99.90
22430;DHT22;11382;48.086;11.632;2023-01-05T05:46:04;10.60;99.90
22430;DHT22;11382;48.086;11.632;2023-01-05T05:48:32;10.60;99.90
22430;DHT22;11382;48.086;11.632;2023-01-05T05:51:00;10.60;99.90
22430;DHT22;11382;48.086;11.632;2023-01-05T05:53:28;10.50;99.90
22430;DHT22;11382;48.086;11.632;2023-01-05T05:55:56;10.60;99.90
22430;DHT22;11382;48.086;11.632;2023-01-05T05:58:24;10.50;99.90
22430;DHT22;11382;48.086;11.632;2023-01-05T06:00:56;10.60;99.90
22430;DHT22;11382;48.086;11.632;2023-01-05T06:03:25;10.60;99.90
22430;DHT22;11382;48.086;11.632;2023-01-05T06:05:53;10.60;99.90
22430;DHT22;11382;48.086;11.632;2023-01-05T06:08:21;10.60;99.90
22430;DHT22;11382;48.086;11.632;2023-01-05T06:10:50;10.60;99.90
22430;DHT22;11382;48.086;11.632;2023-01-05T06:13:18;10.70;99.90
22430;DHT22;11382;48.086;11.632;2023-01-05T06:15:45;10.60;99.90
22430;DHT22;11382;48.086;11.632;2023-01-05T06:18:15;10.70;99.90
22430;DHT22;11382;48.086;11.632;2023-01-05T06:20:45;10.70;99.90
22430;DHT22;11382;48.086;11.632;2023-01-05T06:23:13;10.70;99.90
22430;DHT22;11382;48.086;11.632;2023-01-05T06:25:41;10.70;99.90
22430;DHT22;11382;48.086;11.632;2023-01-05T06:28:08;10.70;99.90
22430;DHT22;11382;48.086;11.632;2023-01-05T06:30:41;10.70;99.90
22430;DHT22;11382;48.086;11.632;2023-01-05T06:33:09;10.70;99.90
22430;DHT22;11382;48.086;11.632;2023-01-05T06:35:37;10.70;99.90
22430;DHT22;11382;48.086;11.632;2023-01-05T06:38:06;10.60;99.90
22430;DHT22;11382;48.086;11.632;2023-01-05T06:40:38;10.70;99.90
22430;DHT22;11382;48.086;11.632;2023-01-05T06:43:06;10.60;99.90
22430;DHT22;11382;48.086;11.632;2023-01-05T06:45:34;10.60;99.90
22430;DHT22;11382;48.086;11.632;2023-01-05T06:48:03;10.60;99.90
22430;DHT22;11382;48.086;11.632;2023-01-05T06:50:30;10.60;99.90
22430;DHT22;11382;48.086;11.632;2023-01-05T06:52:58;10.50;99.90
22430;DHT22;11382;48.086;11.632;2023-01-05T06:55:28;10.60;99.90
22430;DHT22;11382;48.086;11.632;2023-01-05T06:57:56;10.60;99.90
22430;DHT22;11382;48.086;11.632;2023-01-05T07:00:27;10.50;99.90
22430;DHT22;11382;48.086;11.632;2023-01-05T07:02:56;10.60;99.90
22430;DHT22;11382;48.086;11.632;2023-01-05T07:05:24;10.50;99.90
22430;DHT22;11382;48.086;11.632;2023-01-05T07:07:51;10.50;99.90
22430;DHT22;11382;48.086;11.632;2023-01-05T07:10:19;10.50;99.90
22430;DHT22;11382;48.086;11.632;2023-01-05T07:12:49;10.60;99.90
22430;DHT22;11382;48.086;11.632;2023-01-05T07:15:17;10.60;99.90
22430;DHT22;11382;48.086;11.632;2023-01-05T07:17:45;10.60;99.90
22430;DHT22;11382;48.086;11.632;2023-01-05T07:20:13;10.50;99.90
22430;DHT22;11382;48.086;11.632;2023-01-05T07:22:40;10.50;99.90
22430;DHT22;11382;48.086;11.632;2023-01-05T07:25:09;10.50;99.90
22430;DHT22;11382;48.086;11.632;2023-01-05T07:27:37;10.50;99.90
22430;DHT22;11382;48.086;11.632;2023-01-05T07:30:07;10.50;99.90
22430;DHT22;11382;48.086;11.632;2023-01-05T07:32:36;10.50;99.90
22430;DHT22;11382;48.086;11.632;2023-01-05T07:35:05;10.60;99.90
22430;DHT22;11382;48.086;11.632;2023-01-05T07:37:33;10.70;99.90
22430;DHT22;11382;48.086;11.632;2023-01-05T07:40:01;10.70;99.90
22430;DHT22;11382;48.086;11.632;2023-01-05T07:42:29;10.70;99.90
22430;DHT22;11382;48.086;11.632;2023-01-05T07:44:57;10.60;99.90
22430;DHT22;11382;48.086;11.632;2023-01-05T07:47:27;10.70;99.90
22430;DHT22;11382;48.086;11.632;2023-01-05T07:49:54;10.80;99.90
22430;DHT22;11382;48.086;11.632;2023-01-05T07:52:22;10.70;99.90
22430;DHT22;11382;48.086;11.632;2023-01-05T07:54:50;10.80;99.90
22430;DHT22;11382;48.086;11.632;2023-01-05T07:57:18;10.80;99.90
22430;DHT22;11382;48.086;11.632;2023-01-05T07:59:46;10.80;99.90
22430;DHT22;11382;48.086;11.632;2023-01-05T08:02:14;10.90;99.90
22430;DHT22;11382;48.086;11.632;2023-01-05T08:04:43;10.80;99.90
22430;DHT22;11382;48.086;11.632;2023-01-05T08:07:11;10.90;99.90
22430;DHT22;11382;48.086;11.632;2023-01-05T08:09:41;10.90;99.90
22430;DHT22;11382;48.086;11.632;2023-01-05T08:12:27;10.90;99.90
22430;DHT22;11382;48.086;11.632;2023-01-05T08:14:56;10.90;99.90
22430;DHT22;11382;48.086;11.632;2023-01-05T08:17:23;10.90;99.90
22430;DHT22;11382;48.086;11.632;2023-01-05T08:19:53;10.90;99.90
22430;DHT22;11382;48.086;11.632;2023-01-05T08:22:21;10.90;99.90
22430;DHT22;11382;48.086;11.632;2023-01-05T08:24:48;10.90;99.90
22430;DHT22;11382;48.086;11.632;2023-01-05T08:27:17;10.90;99.90
22430;DHT22;11382;48.086;11.632;2023-01-05T08:29:45;10.90;99.90
22430;DHT22;11382;48.086;11.632;2023-01-05T08:32:13;10.90;99.90
22430;DHT22;11382;48.086;11.632;2023-01-05T08:34:41;10.90;99.90
22430;DHT22;11382;48.086;11.632;2023-01-05T08:37:10;10.90;99.90
22430;DHT22;11382;48.086;11.632;2023-01-05T08:39:38;10.90;99.90
22430;DHT22;11382;48.086;11.632;2023-01-05T08:42:06;11.00;99.90
22430;DHT22;11382;48.086;11.632;2023-01-05T08:44:34;11.00;99.90
22430;DHT22;11382;48.086;11.632;2023-01-05T08:47:02;10.90;99.90
22430;DHT22;11382;48.086;11.632;2023-01-05T08:49:30;10.70;99.90
22430;DHT22;11382;48.086;11.632;2023-01-05T08:51:58;10.70;99.90
22430;DHT22;11382;48.086;11.632;2023-01-05T08:54:27;10.70;99.90
22430;DHT22;11382;48.086;11.632;2023-01-05T08:56:55;10.60;99.90
22430;DHT22;11382;48.086;11.632;2023-01-05T08:59:23;10.70;99.90
22430;DHT22;11382;48.086;11.632;2023-01-05T09:01:51;10.70;99.90
22430;DHT22;11382;48.086;11.632;2023-01-05T09:04:19;10.80;99.90
22430;DHT22;11382;48.086;11.632;2023-01-05T09:06:47;10.90;99.90
22430;DHT22;11382;48.086;11.632;2023-01-05T09:09:15;10.90;99.90
22430;DHT22;11382;48.086;11.632;2023-01-05T09:11:44;10.90;99.90
22430;DHT22;11382;48.086;11.632;2023-01-05T09:14:12;11.00;99.90
22430;DHT22;11382;48.086;11.632;2023-01-05T09:16:41;11.00;99.90
22430;DHT22;11382;48.086;11.632;2023-01-05T09:19:29;11.00;99.90
22430;DHT22;11382;48.086;11.632;2023-01-05T09:21:57;11.00;99.90
22430;DHT22;11382;48.086;11.632;2023-01-05T09:24:25;11.00;99.90
22430;DHT22;11382;48.086;11.632;2023-01-05T09:26:55;11.10;99.90
22430;DHT22;11382;48.086;11.632;2023-01-05T09:29:23;11.00;99.90
22430;DHT22;11382;48.086;11.632;2023-01-05T09:31:51;11.10;99.90
22430;DHT22;11382;48.086;11.632;2023-01-05T09:34:20;11.10;99.90
22430;DHT22;11382;48.086;11.632;2023-01-05T09:36:48;11.10;99.90
22430;DHT22;11382;48.086;11.632;2023-01-05T09:39:16;11.20;99.90
22430;DHT22;11382;48.086;11.632;2023-01-05T09:41:47;11.10;99.90
22430;DHT22;11382;48.086;11.632;2023-01-05T09:44:27;11.10;99.90
22430;DHT22;11382;48.086;11.632;2023-01-05T09:47:00;11.20;99.90
22430;DHT22;11382;48.086;11.632;2023-01-05T09:49:30;11.20;99.90
22430;DHT22;11382;48.086;11.632;2023-01-05T09:52:00;11.20;99.90
22430;DHT22;11382;48.086;11.632;2023-01-05T09:54:31;11.30;99.90
22430;DHT22;11382;48.086;11.632;2023-01-05T09:57:00;11.30;99.90
22430;DHT22;11382;48.086;11.632;2023-01-05T09:59:39;11.40;99.90
22430;DHT22;11382;48.086;11.632;2023-01-05T10:02:16;11.40;99.90
22430;DHT22;11382;48.086;11.632;2023-01-05T10:04:46;11.40;99.90
22430;DHT22;11382;48.086;11.632;2023-01-05T10:07:19;11.30;99.90
22430;DHT22;11382;48.086;11.632;2023-01-05T10:09:48;11.40;99.90
22430;DHT22;11382;48.086;11.632;2023-01-05T10:12:21;11.40;99.90
22430;DHT22;11382;48.086;11.632;2023-01-05T10:15:14;11.40;99.90
22430;DHT22;11382;48.086;11.632;2023-01-05T10:17:42;11.40;99.90
22430;DHT22;11382;48.086;11.632;2023-01-05T10:20:16;11.50;99.90
22430;DHT22;11382;48.086;11.632;2023-01-05T10:22:46;11.50;99.90
22430;DHT22;11382;48.086;11.632;2023-01-05T10:25:21;11.60;99.90
22430;DHT22;11382;48.086;11.632;2023-01-05T10:27:59;11.50;99.90
22430;DHT22;11382;48.086;11.632;2023-01-05T10:30:40;11.50;99.90
22430;DHT22;11382;48.086;11.632;2023-01-05T10:33:15;11.60;99.90
22430;DHT22;11382;48.086;11.632;2023-01-05T10:36:10;11.60;99.90
22430;DHT22;11382;48.086;11.632;2023-01-05T10:39:07;11.60;99.90
22430;DHT22;11382;48.086;11.632;2023-01-05T10:41:42;11.60;99.90
22430;DHT22;11382;48.086;11.632;2023-01-05T10:44:32;11.70;99.90
22430;DHT22;11382;48.086;11.632;2023-01-05T10:47:06;11.80;99.90
22430;DHT22;11382;48.086;11.632;2023-01-05T10:49:36;11.70;99.90
22430;DHT22;11382;48.086;11.632;2023-01-05T10:52:07;11.70;99.90
22430;DHT22;11382;48.086;11.632;2023-01-05T10:54:42;11.70;99.90
22430;DHT22;11382;48.086;11.632;2023-01-05T10:57:30;11.70;99.90
22430;DHT22;11382;48.086;11.632;2023-01-05T11:00:06;11.70;99.90
22430;DHT22;11382;48.086;11.632;2023-01-05T11:02:37;11.80;99.90
22430;DHT22;11382;48.086;11.632;2023-01-05T11:05:27;11.90;99.90
22430;DHT22;11382;48.086;11.632;2023-01-05T11:07:58;11.90;99.90
22430;DHT22;11382;48.086;11.632;2023-01-05T11:10:30;12.00;99.90
22430;DHT22;11382;48.086;11.632;2023-01-05T11:13:04;12.00;99.90
22430;DHT22;11382;48.086;11.632;2023-01-05T11:15:40;12.00;99.90
22430;DHT22;11382;48.086;11.632;2023-01-05T11:18:35;12.00;99.90
22430;DHT22;11382;48.086;11.632;2023-01-05T11:21:09;11.90;99.90
22430;DHT22;11382;48.086;11.632;2023-01-05T11:23:39;11.70;99.90
22430;DHT22;11382;48.086;11.632;2023-01-05T11:29:13;11.60;99.90
22430;DHT22;11382;48.086;11.632;2023-01-05T11:31:47;11.30;99.90
22430;DHT22;11382;48.086;11.632;2023-01-05T11:34:35;11.00;99.90
22430;DHT22;11382;48.086;11.632;2023-01-05T11:37:11;10.80;99.90
22430;DHT22;11382;48.086;11.632;2023-01-05T11:39:47;10.60;99.90
22430;DHT22;11382;48.086;11.632;2023-01-05T11:42:17;10.50;99.90
22430;DHT22;11382;48.086;11.632;2023-01-05T11:44:53;10.30;99.90
22430;DHT22;11382;48.086;11.632;2023-01-05T11:47:25;10.30;99.90
22430;DHT22;11382;48.086;11.632;2023-01-05T11:50:01;10.40;99.90
22430;DHT22;11382;48.086;11.632;2023-01-05T11:52:38;10.60;99.90
22430;DHT22;11382;48.086;11.632;2023-01-05T11:55:28;10.50;99.90
22430;DHT22;11382;48.086;11.632;2023-01-05T11:58:11;10.60;99.90
22430;DHT22;11382;48.086;11.632;2023-01-05T12:00:47;10.70;99.90
22430;DHT22;11382;48.086;11.632;2023-01-05T12:03:28;10.90;99.90
22430;DHT22;11382;48.086;11.632;2023-01-05T12:06:09;11.10;99.90
22430;DHT22;11382;48.086;11.632;2023-01-05T12:08:44;11.10;99.90
22430;DHT22;11382;48.086;11.632;2023-01-05T12:11:17;10.80;99.90
22430;DHT22;11382;48.086;11.632;2023-01-05T12:14:00;10.70;99.90
22430;DHT22;11382;48.086;11.632;2023-01-05T12:16:43;10.50;99.90
22430;DHT22;11382;48.086;11.632;2023-01-05T12:19:32;10.60;99.90
22430;DHT22;11382;48.086;11.632;2023-01-05T12:22:38;10.80;99.90
22430;DHT22;11382;48.086;11.632;2023-01-05T12:25:19;11.00;99.90
22430;DHT22;11382;48.086;11.632;2023-01-05T12:31:15;11.00;99.90
22430;DHT22;11382;48.086;11.632;2023-01-05T12:34:21;11.10;99.90
22430;DHT22;11382;48.086;11.632;2023-01-05T12:37:05;10.90;99.90
22430;DHT22;11382;48.086;11.632;2023-01-05T12:39:54;11.10;99.90
22430;DHT22;11382;48.086;11.632;2023-01-05T12:48:14;11.30;99.90
22430;DHT22;11382;48.086;11.632;2023-01-05T12:50:46;11.40;99.90
22430;DHT22;11382;48.086;11.632;2023-01-05T12:53:21;11.50;99.90
22430;DHT22;11382;48.086;11.632;2023-01-05T12:55:55;11.70;99.90
22430;DHT22;11382;48.086;11.632;2023-01-05T12:58:27;11.70;99.90
22430;DHT22;11382;48.086;11.632;2023-01-05T13:00:58;11.70;99.90
22430;DHT22;11382;48.086;11.632;2023-01-05T13:03:32;11.50;99.90
22430;DHT22;11382;48.086;11.632;2023-01-05T13:06:04;11.30;99.90
22430;DHT22;11382;48.086;11.632;2023-01-05T13:08:37;11.20;99.90
22430;DHT22;11382;48.086;11.632;2023-01-05T13:11:10;11.10;99.90
22430;DHT22;11382;48.086;11.632;2023-01-05T13:13:43;11.00;99.90
22430;DHT22;11382;48.086;11.632;2023-01-05T13:16:16;11.00;99.90
22430;DHT22;11382;48.086;11.632;2023-01-05T13:18:49;10.90;99.90
22430;DHT22;11382;48.086;11.632;2023-01-05T13:21:20;10.90;99.90
22430;DHT22;11382;48.086;11.632;2023-01-05T13:23:50;10.90;99.90
22430;DHT22;11382;48.086;11.632;2023-01-05T13:26:21;10.80;99.90
22430;DHT22;11382;48.086;11.632;2023-01-05T13:28:52;10.80;99.90
22430;DHT22;11382;48.086;11.632;2023-01-05T13:31:44;10.80;99.90
22430;DHT22;11382;48.086;11.632;2023-01-05T13:37:31;10.90;99.90
22430;DHT22;11382;48.086;11.632;2023-01-05T13:40:15;10.70;99.90
22430;DHT22;11382;48.086;11.632;2023-01-05T13:43:14;10.60;99.90
22430;DHT22;11382;48.086;11.632;2023-01-05T13:49:09;10.60;99.90
22430;DHT22;11382;48.086;11.632;2023-01-05T13:51:50;10.50;99.90
22430;DHT22;11382;48.086;11.632;2023-01-05T13:54:29;10.60;99.90
22430;DHT22;11382;48.086;11.632;2023-01-05T13:57:23;10.60;99.90
22430;DHT22;11382;48.086;11.632;2023-01-05T13:59:55;10.60;99.90
22430;DHT22;11382;48.086;11.632;2023-01-05T14:02:39;10.50;99.90
22430;DHT22;11382;48.086;11.632;2023-01-05T14:05:15;10.50;99.90
22430;DHT22;11382;48.086;11.632;2023-01-05T14:07:50;10.50;99.90
22430;DHT22;11382;48.086;11.632;2023-01-05T14:10:21;10.50;99.90
22430;DHT22;11382;48.086;11.632;2023-01-05T14:12:50;10.50;99.90
22430;DHT22;11382;48.086;11.632;2023-01-05T14:15:37;10.50;99.90
22430;DHT22;11382;48.086;11.632;2023-01-05T14:18:07;10.50;99.90
22430;DHT22;11382;48.086;11.632;2023-01-05T14:20:41;10.40;99.90
22430;DHT22;11382;48.086;11.632;2023-01-05T14:26:15;10.50;99.90
22430;DHT22;11382;48.086;11.632;2023-01-05T14:28:45;10.40;99.90
22430;DHT22;11382;48.086;11.632;2023-01-05T14:31:49;10.30;99.90
22430;DHT22;11382;48.086;11.632;2023-01-05T14:34:18;10.30;99.90
22430;DHT22;11382;48.086;11.632;2023-01-05T14:37:00;10.30;99.90
22430;DHT22;11382;48.086;11.632;2023-01-05T14:39:33;10.30;99.90
22430;DHT22;11382;48.086;11.632;2023-01-05T14:42:05;10.30;99.90
22430;DHT22;11382;48.086;11.632;2023-01-05T14:44:40;10.30;99.90
22430;DHT22;11382;48.086;11.632;2023-01-05T14:47:11;10.30;99.90
22430;DHT22;11382;48.086;11.632;2023-01-05T14:49:41;10.20;99.90
22430;DHT22;11382;48.086;11.632;2023-01-05T14:52:19;10.20;99.90
22430;DHT22;11382;48.086;11.632;2023-01-05T14:55:18;10.10;99.90
22430;DHT22;11382;48.086;11.632;2023-01-05T14:58:04;10.10;99.90
22430;DHT22;11382;48.086;11.632;2023-01-05T15:00:44;10.00;99.90
22430;DHT22;11382;48.086;11.632;2023-01-05T15:03:22;10.00;99.90
22430;DHT22;11382;48.086;11.632;2023-01-05T15:06:04;9.90;99.90
22430;DHT22;11382;48.086;11.632;2023-01-05T15:11:57;9.90;99.90
22430;DHT22;11382;48.086;11.632;2023-01-05T15:14:50;9.90;99.90
22430;DHT22;11382;48.086;11.632;2023-01-05T15:20:55;10.00;99.90
22430;DHT22;11382;48.086;11.632;2023-01-05T15:23:44;10.00;99.90
22430;DHT22;11382;48.086;11.632;2023-01-05T15:26:33;9.90;99.90
22430;DHT22;11382;48.086;11.632;2023-01-05T15:29:29;9.90;99.90
22430;DHT22;11382;48.086;11.632;2023-01-05T15:32:02;9.90;99.90
22430;DHT22;11382;48.086;11.632;2023-01-05T15:34:35;9.90;99.90
22430;DHT22;11382;48.086;11.632;2023-01-05T15:37:13;9.90;99.90
22430;DHT22;11382;48.086;11.632;2023-01-05T15:39:48;9.90;99.90
22430;DHT22;11382;48.086;11.632;2023-01-05T15:42:19;9.90;99.90
22430;DHT22;11382;48.086;11.632;2023-01-05T15:44:50;9.90;99.90
22430;DHT22;11382;48.086;11.632;2023-01-05T15:47:19;9.90;99.90
22430;DHT22;11382;48.086;11.632;2023-01-05T15:49:48;9.80;99.90
22430;DHT22;11382;48.086;11.632;2023-01-05T15:52:22;9.90;99.90
22430;DHT22;11382;48.086;11.632;2023-01-05T15:54:59;9.90;99.90
22430;DHT22;11382;48.086;11.632;2023-01-05T15:57:27;9.90;99.90
22430;DHT22;11382;48.086;11.632;2023-01-05T15:59:55;9.90;99.90
22430;DHT22;11382;48.086;11.632;2023-01-05T16:02:25;9.90;99.90
22430;DHT22;11382;48.086;11.632;2023-01-05T16:05:13;9.80;99.90
22430;DHT22;11382;48.086;11.632;2023-01-05T16:07:45;9.90;99.90
22430;DHT22;11382;48.086;11.632;2023-01-05T16:10:20;9.90;99.90
22430;DHT22;11382;48.086;11.632;2023-01-05T16:12:50;9.90;99.90
22430;DHT22;11382;48.086;11.632;2023-01-05T16:15:21;9.90;99.90
22430;DHT22;11382;48.086;11.632;2023-01-05T16:17:51;9.90;99.90
22430;DHT22;11382;48.086;11.632;2023-01-05T16:20:23;9.80;99.90
22430;DHT22;11382;48.086;11.632;2023-01-05T16:22:59;9.80;99.90
22430;DHT22;11382;48.086;11.632;2023-01-05T16:25:39;9.90;99.90
22430;DHT22;11382;48.086;11.632;2023-01-05T16:28:13;9.90;99.90
22430;DHT22;11382;48.086;11.632;2023-01-05T16:30:45;9.90;99.90
22430;DHT22;11382;48.086;11.632;2023-01-05T16:33:26;9.90;99.90